sensor_id;sensor_type;location;lat;lon;timestamp;pressure;altitude;pressure_sealevel;temperature;humidity
62025;BME280;47978;49.118;12.146;2023-05-01T00:03:41;97503.97;;;9.56;65.46
62025;BME280;47978;49.118;12.146;2023-05-01T00:07:44;97500.19;;;9.52;65.24
62025;BME280;47978;49.118;12.146;2023-05-01T00:11:46;97504.59;;;9.53;64.81
62025;BME280;47978;49.118;12.146;2023-05-01T00:15:47;97496.91;;;9.50;65.19
62025;BME280;47978;49.118;12.146;2023-05-01T00:19:50;97493.41;;;9.44;65.61
62025;BME280;47978;49.118;12.146;2023-05-01T00:23:53;97493.53;;;9.53;64.48
62025;BME280;47978;49.118;12.146;2023-05-01T00:27:54;97493.84;;;9.51;64.87
62025;BME280;47978;49.118;12.146;2023-05-01T00:31:55;97485.56;;;9.51;64.70
62025;BME280;47978;49.118;12.146;2023-05-01T00:35:58;97486.19;;;9.48;64.54
62025;BME280;47978;49.118;12.146;2023-05-01T00:40:00;97486.09;;;9.34;65.77
62025;BME280;47978;49.118;12.146;2023-05-01T00:44:02;97477.00;;;9.34;65.31
62025;BME280;47978;49.118;12.146;2023-05-01T00:48:03;97479.31;;;9.27;65.54
62025;BME280;47978;49.118;12.146;2023-05-01T00:52:06;97482.59;;;9.29;65.64
62025;BME280;47978;49.118;12.146;2023-05-01T00:56:08;97474.31;;;9.29;65.74
62025;BME280;47978;49.118;12.146;2023-05-01T01:00:11;97479.91;;;9.23;66.20
62025;BME280;47978;49.118;12.146;2023-05-01T01:04:13;97466.03;;;9.10;66.37
62025;BME280;47978;49.118;12.146;2023-05-01T01:08:17;97466.69;;;9.01;66.75
62025;BME280;47978;49.118;12.146;2023-05-01T01:12:23;97467.28;;;8.98;67.48
62025;BME280;47978;49.118;12.146;2023-05-01T01:16:27;97462.94;;;8.92;67.10
62025;BME280;47978;49.118;12.146;2023-05-01T01:20:35;97452.75;;;8.93;67.21
62025;BME280;47978;49.118;12.146;2023-05-01T01:29:16;97440.25;;;8.76;68.41
62025;BME280;47978;49.118;12.146;2023-05-01T01:37:45;97440.47;;;8.61;68.17
62025;BME280;47978;49.118;12.146;2023-05-01T01:41:49;97442.63;;;8.64;68.19
62025;BME280;47978;49.118;12.146;2023-05-01T01:45:52;97437.94;;;8.65;67.81
62025;BME280;47978;49.118;12.146;2023-05-01T01:49:54;97433.44;;;8.50;68.69
62025;BME280;47978;49.118;12.146;2023-05-01T01:53:58;97429.66;;;8.65;67.85
62025;BME280;47978;49.118;12.146;2023-05-01T01:58:00;97420.72;;;8.54;67.93
62025;BME280;47978;49.118;12.146;2023-05-01T02:02:03;97415.22;;;8.54;67.49
62025;BME280;47978;49.118;12.146;2023-05-01T02:06:05;97418.34;;;8.66;67.01
62025;BME280;47978;49.118;12.146;2023-05-01T02:10:10;97407.28;;;8.71;66.59
62025;BME280;47978;49.118;12.146;2023-05-01T02:14:12;97399.75;;;8.77;66.19
62025;BME280;47978;49.118;12.146;2023-05-01T02:18:15;97402.94;;;8.65;66.46
62025;BME280;47978;49.118;12.146;2023-05-01T02:22:16;97389.06;;;8.70;66.18
62025;BME280;47978;49.118;12.146;2023-05-01T02:26:20;97386.41;;;8.65;66.13
62025;BME280;47978;49.118;12.146;2023-05-01T02:30:25;97388.31;;;8.65;66.68
62025;BME280;47978;49.118;12.146;2023-05-01T02:34:27;97391.94;;;8.65;66.19
62025;BME280;47978;49.118;12.146;2023-05-01T02:38:28;97385.56;;;8.65;66.45
62025;BME280;47978;49.118;12.146;2023-05-01T02:42:31;97386.53;;;8.55;66.20
62025;BME280;47978;49.118;12.146;2023-05-01T02:46:34;97379.91;;;8.56;66.41
62025;BME280;47978;49.118;12.146;2023-05-01T02:50:36;97370.38;;;8.48;66.24
62025;BME280;47978;49.118;12.146;2023-05-01T02:54:38;97368.66;;;8.52;66.30
62025;BME280;47978;49.118;12.146;2023-05-01T02:58:40;97367.03;;;8.51;66.40
62025;BME280;47978;49.118;12.146;2023-05-01T03:02:42;97367.69;;;8.43;66.68
62025;BME280;47978;49.118;12.146;2023-05-01T03:06:44;97370.44;;;8.43;65.97
62025;BME280;47978;49.118;12.146;2023-05-01T03:10:45;97361.34;;;8.43;65.82
62025;BME280;47978;49.118;12.146;2023-05-01T03:14:48;97354.28;;;8.31;66.79
62025;BME280;47978;49.118;12.146;2023-05-01T03:18:49;97346.53;;;8.33;66.34
62025;BME280;47978;49.118;12.146;2023-05-01T03:22:51;97350.78;;;8.26;66.33
62025;BME280;47978;49.118;12.146;2023-05-01T03:26:52;97343.63;;;8.25;66.53
62025;BME280;47978;49.118;12.146;2023-05-01T03:30:55;97341.41;;;8.27;66.09
62025;BME280;47978;49.118;12.146;2023-05-01T03:34:56;97338.81;;;8.36;65.70
62025;BME280;47978;49.118;12.146;2023-05-01T03:38:58;97343.41;;;8.21;65.76
62025;BME280;47978;49.118;12.146;2023-05-01T03:42:59;97330.28;;;8.13;66.26
62025;BME280;47978;49.118;12.146;2023-05-01T03:47:02;97333.03;;;8.13;66.71
62025;BME280;47978;49.118;12.146;2023-05-01T03:51:03;97328.41;;;8.08;66.81
62025;BME280;47978;49.118;12.146;2023-05-01T03:55:05;97321.25;;;8.07;66.61
62025;BME280;47978;49.118;12.146;2023-05-01T03:59:07;97329.75;;;8.11;66.35
62025;BME280;47978;49.118;12.146;2023-05-01T04:03:10;97329.19;;;8.14;66.41
62025;BME280;47978;49.118;12.146;2023-05-01T04:07:11;97324.47;;;8.15;66.05
62025;BME280;47978;49.118;12.146;2023-05-01T04:11:13;97319.78;;;8.15;65.80
62025;BME280;47978;49.118;12.146;2023-05-01T04:15:14;97323.59;;;8.19;66.27
62025;BME280;47978;49.118;12.146;2023-05-01T04:19:17;97326.47;;;8.09;66.19
62025;BME280;47978;49.118;12.146;2023-05-01T04:23:18;97318.59;;;8.21;65.78
62025;BME280;47978;49.118;12.146;2023-05-01T04:27:20;97320.75;;;8.24;65.99
62025;BME280;47978;49.118;12.146;2023-05-01T04:31:21;97317.47;;;8.22;66.14
62025;BME280;47978;49.118;12.146;2023-05-01T04:35:24;97323.84;;;8.23;66.29
62025;BME280;47978;49.118;12.146;2023-05-01T04:39:26;97319.78;;;8.39;65.58
62025;BME280;47978;49.118;12.146;2023-05-01T04:43:27;97318.66;;;8.59;64.68
62025;BME280;47978;49.118;12.146;2023-05-01T04:47:28;97308.63;;;8.68;65.32
62025;BME280;47978;49.118;12.146;2023-05-01T04:51:31;97313.75;;;8.75;64.12
62025;BME280;47978;49.118;12.146;2023-05-01T04:55:33;97312.69;;;8.90;63.89
62025;BME280;47978;49.118;12.146;2023-05-01T04:59:35;97314.66;;;8.89;63.46
62025;BME280;47978;49.118;12.146;2023-05-01T05:03:36;97310.47;;;9.11;63.31
62025;BME280;47978;49.118;12.146;2023-05-01T05:07:39;97315.72;;;9.26;63.26
62025;BME280;47978;49.118;12.146;2023-05-01T05:11:41;97321.56;;;9.38;62.47
62025;BME280;47978;49.118;12.146;2023-05-01T05:15:42;97328.03;;;9.61;61.56
62025;BME280;47978;49.118;12.146;2023-05-01T05:19:43;97335.09;;;9.67;61.26
62025;BME280;47978;49.118;12.146;2023-05-01T05:23:46;97336.38;;;9.89;61.92
62025;BME280;47978;49.118;12.146;2023-05-01T05:27:48;97337.72;;;10.05;60.55
62025;BME280;47978;49.118;12.146;2023-05-01T05:31:49;97335.28;;;10.31;60.16
62025;BME280;47978;49.118;12.146;2023-05-01T05:35:50;97331.69;;;10.45;60.76
62025;BME280;47978;49.118;12.146;2023-05-01T05:39:53;97322.88;;;10.56;60.20
62025;BME280;47978;49.118;12.146;2023-05-01T05:43:55;97323.13;;;10.69;58.76
62025;BME280;47978;49.118;12.146;2023-05-01T05:47:57;97333.50;;;10.99;57.89
62025;BME280;47978;49.118;12.146;2023-05-01T05:51:58;97332.81;;;10.94;57.57
62025;BME280;47978;49.118;12.146;2023-05-01T05:56:01;97331.13;;;11.29;56.34
62025;BME280;47978;49.118;12.146;2023-05-01T06:00:02;97330.88;;;11.93;54.34
62025;BME280;47978;49.118;12.146;2023-05-01T06:04:04;97309.03;;;12.49;52.52
62025;BME280;47978;49.118;12.146;2023-05-01T06:08:05;97304.69;;;12.74;51.82
62025;BME280;47978;49.118;12.146;2023-05-01T06:12:08;97304.53;;;13.22;50.16
62025;BME280;47978;49.118;12.146;2023-05-01T06:16:09;97315.09;;;13.72;49.70
62025;BME280;47978;49.118;12.146;2023-05-01T06:20:11;97310.75;;;14.01;48.79
62025;BME280;47978;49.118;12.146;2023-05-01T06:24:12;97302.78;;;14.89;47.55
62025;BME280;47978;49.118;12.146;2023-05-01T06:28:15;97305.63;;;15.55;44.49
62025;BME280;47978;49.118;12.146;2023-05-01T06:32:16;97304.88;;;15.79;44.22
62025;BME280;47978;49.118;12.146;2023-05-01T06:36:18;97302.19;;;16.28;43.67
62025;BME280;47978;49.118;12.146;2023-05-01T06:40:19;97292.66;;;16.54;43.09
62025;BME280;47978;49.118;12.146;2023-05-01T06:44:22;97293.09;;;16.80;42.22
62025;BME280;47978;49.118;12.146;2023-05-01T06:48:23;97285.53;;;16.44;42.54
62025;BME280;47978;49.118;12.146;2023-05-01T06:52:25;97286.09;;;16.74;42.51
62025;BME280;47978;49.118;12.146;2023-05-01T06:56:26;97275.53;;;16.80;42.53
62025;BME280;47978;49.118;12.146;2023-05-01T07:00:29;97288.81;;;16.09;43.53
62025;BME280;47978;49.118;12.146;2023-05-01T07:04:30;97284.50;;;16.00;43.96
62025;BME280;47978;49.118;12.146;2023-05-01T07:08:32;97278.09;;;15.99;44.25
62025;BME280;47978;49.118;12.146;2023-05-01T07:12:33;97275.06;;;15.80;45.39
62025;BME280;47978;49.118;12.146;2023-05-01T07:16:36;97273.56;;;15.94;44.32
62025;BME280;47978;49.118;12.146;2023-05-01T07:20:37;97277.47;;;15.81;45.37
62025;BME280;47978;49.118;12.146;2023-05-01T07:24:39;97273.47;;;15.58;45.34
62025;BME280;47978;49.118;12.146;2023-05-01T07:28:40;97267.97;;;15.49;46.44
62025;BME280;47978;49.118;12.146;2023-05-01T07:32:43;97262.72;;;15.47;46.75
62025;BME280;47978;49.118;12.146;2023-05-01T07:36:44;97266.13;;;15.53;47.31
62025;BME280;47978;49.118;12.146;2023-05-01T07:40:46;97268.88;;;15.74;46.32
62025;BME280;47978;49.118;12.146;2023-05-01T07:44:48;97267.75;;;15.54;46.98
62025;BME280;47978;49.118;12.146;2023-05-01T07:48:51;97265.41;;;16.02;46.21
62025;BME280;47978;49.118;12.146;2023-05-01T07:52:53;97262.28;;;16.15;45.67
62025;BME280;47978;49.118;12.146;2023-05-01T07:56:54;97259.50;;;16.40;46.10
62025;BME280;47978;49.118;12.146;2023-05-01T08:00:55;97263.44;;;16.39;44.69
62025;BME280;47978;49.118;12.146;2023-05-01T08:04:58;97261.69;;;16.47;45.49
62025;BME280;47978;49.118;12.146;2023-05-01T08:09:00;97271.94;;;16.06;45.53
62025;BME280;47978;49.118;12.146;2023-05-01T08:13:01;97257.53;;;16.28;45.45
62025;BME280;47978;49.118;12.146;2023-05-01T08:17:02;97252.66;;;16.25;44.71
62025;BME280;47978;49.118;12.146;2023-05-01T08:21:05;97257.16;;;16.54;44.08
62025;BME280;47978;49.118;12.146;2023-05-01T08:25:07;97255.53;;;16.41;45.84
62025;BME280;47978;49.118;12.146;2023-05-01T08:29:08;97263.75;;;15.76;48.81
62025;BME280;47978;49.118;12.146;2023-05-01T08:33:10;97252.16;;;15.74;48.44
62025;BME280;47978;49.118;12.146;2023-05-01T08:37:13;97262.28;;;15.91;48.18
62025;BME280;47978;49.118;12.146;2023-05-01T08:41:14;97265.34;;;16.23;47.41
62025;BME280;47978;49.118;12.146;2023-05-01T08:45:16;97257.19;;;16.05;47.01
62025;BME280;47978;49.118;12.146;2023-05-01T08:49:20;97252.06;;;16.32;47.88
62025;BME280;47978;49.118;12.146;2023-05-01T08:53:24;97240.75;;;16.53;46.33
62025;BME280;47978;49.118;12.146;2023-05-01T08:57:25;97235.25;;;16.81;45.41
62025;BME280;47978;49.118;12.146;2023-05-01T09:01:28;97232.91;;;17.23;45.48
62025;BME280;47978;49.118;12.146;2023-05-01T09:05:30;97237.13;;;17.61;45.12
62025;BME280;47978;49.118;12.146;2023-05-01T09:09:33;97229.16;;;17.91;43.09
62025;BME280;47978;49.118;12.146;2023-05-01T09:13:35;97230.59;;;18.01;43.56
62025;BME280;47978;49.118;12.146;2023-05-01T09:17:36;97221.81;;;18.18;42.92
62025;BME280;47978;49.118;12.146;2023-05-01T09:21:38;97221.66;;;18.27;43.31
62025;BME280;47978;49.118;12.146;2023-05-01T09:25:41;97217.94;;;18.23;44.32
62025;BME280;47978;49.118;12.146;2023-05-01T09:29:43;97219.72;;;18.47;43.28
62025;BME280;47978;49.118;12.146;2023-05-01T09:33:50;97218.00;;;18.42;42.53
62025;BME280;47978;49.118;12.146;2023-05-01T09:37:51;97211.34;;;18.66;42.31
62025;BME280;47978;49.118;12.146;2023-05-01T09:41:54;97212.31;;;18.39;39.80
62025;BME280;47978;49.118;12.146;2023-05-01T09:45:59;97209.03;;;17.86;43.13
62025;BME280;47978;49.118;12.146;2023-05-01T09:50:01;97212.53;;;18.14;41.96
62025;BME280;47978;49.118;12.146;2023-05-01T09:54:03;97207.41;;;18.16;41.38
62025;BME280;47978;49.118;12.146;2023-05-01T09:58:05;97211.84;;;18.53;42.10
62025;BME280;47978;49.118;12.146;2023-05-01T10:02:07;97199.81;;;18.01;41.73
62025;BME280;47978;49.118;12.146;2023-05-01T10:06:27;97204.56;;;17.69;42.35
62025;BME280;47978;49.118;12.146;2023-05-01T10:10:29;97209.69;;;17.51;41.86
62025;BME280;47978;49.118;12.146;2023-05-01T10:14:32;97209.81;;;17.70;42.92
62025;BME280;47978;49.118;12.146;2023-05-01T10:18:33;97200.34;;;18.23;42.26
62025;BME280;47978;49.118;12.146;2023-05-01T10:22:35;97204.75;;;18.24;42.07
62025;BME280;47978;49.118;12.146;2023-05-01T10:26:36;97215.75;;;17.69;42.59
62025;BME280;47978;49.118;12.146;2023-05-01T10:30:39;97209.63;;;17.63;42.72
62025;BME280;47978;49.118;12.146;2023-05-01T10:34:42;97208.03;;;17.94;44.17
62025;BME280;47978;49.118;12.146;2023-05-01T10:38:45;97202.69;;;18.20;41.43
62025;BME280;47978;49.118;12.146;2023-05-01T10:51:27;97201.19;;;18.42;41.45
62025;BME280;47978;49.118;12.146;2023-05-01T10:55:33;97193.22;;;18.25;41.09
62025;BME280;47978;49.118;12.146;2023-05-01T11:03:54;97190.56;;;18.68;40.85
62025;BME280;47978;49.118;12.146;2023-05-01T11:12:14;97189.63;;;17.93;40.94
62025;BME280;47978;49.118;12.146;2023-05-01T11:16:38;97189.94;;;18.23;41.65
62025;BME280;47978;49.118;12.146;2023-05-01T11:20:47;97187.94;;;18.39;40.44
62025;BME280;47978;49.118;12.146;2023-05-01T11:24:49;97190.06;;;18.46;41.38
62025;BME280;47978;49.118;12.146;2023-05-01T11:28:53;97179.78;;;18.70;39.95
62025;BME280;47978;49.118;12.146;2023-05-01T11:32:54;97172.69;;;18.92;40.75
62025;BME280;47978;49.118;12.146;2023-05-01T11:36:56;97175.25;;;19.20;40.07
62025;BME280;47978;49.118;12.146;2023-05-01T11:40:58;97181.03;;;19.50;40.04
62025;BME280;47978;49.118;12.146;2023-05-01T11:45:05;97175.03;;;19.71;39.44
62025;BME280;47978;49.118;12.146;2023-05-01T11:49:06;97174.75;;;20.03;38.23
62025;BME280;47978;49.118;12.146;2023-05-01T11:53:09;97168.41;;;19.40;40.16
62025;BME280;47978;49.118;12.146;2023-05-01T11:57:10;97155.28;;;19.02;40.71
62025;BME280;47978;49.118;12.146;2023-05-01T12:01:13;97161.47;;;19.11;40.85
62025;BME280;47978;49.118;12.146;2023-05-01T12:05:15;97158.16;;;18.86;40.52
62025;BME280;47978;49.118;12.146;2023-05-01T12:09:16;97156.91;;;18.83;41.79
62025;BME280;47978;49.118;12.146;2023-05-01T12:13:18;97156.81;;;19.19;39.91
62025;BME280;47978;49.118;12.146;2023-05-01T12:17:21;97154.38;;;19.17;41.62
62025;BME280;47978;49.118;12.146;2023-05-01T12:21:23;97151.47;;;18.91;41.02
62025;BME280;47978;49.118;12.146;2023-05-01T12:25:28;97146.66;;;19.10;40.87
62025;BME280;47978;49.118;12.146;2023-05-01T12:29:38;97146.03;;;19.21;40.74
62025;BME280;47978;49.118;12.146;2023-05-01T12:33:40;97143.00;;;18.87;41.11
62025;BME280;47978;49.118;12.146;2023-05-01T12:37:52;97143.50;;;18.93;41.14
62025;BME280;47978;49.118;12.146;2023-05-01T12:41:53;97155.56;;;18.97;41.87
62025;BME280;47978;49.118;12.146;2023-05-01T12:45:55;97148.34;;;18.96;42.18
62025;BME280;47978;49.118;12.146;2023-05-01T12:50:01;97145.00;;;18.71;43.47
62025;BME280;47978;49.118;12.146;2023-05-01T12:54:03;97141.81;;;18.72;42.99
62025;BME280;47978;49.118;12.146;2023-05-01T12:58:04;97144.09;;;18.28;44.83
62025;BME280;47978;49.118;12.146;2023-05-01T13:02:06;97140.16;;;18.32;44.33
62025;BME280;47978;49.118;12.146;2023-05-01T13:06:09;97144.63;;;18.17;44.59
62025;BME280;47978;49.118;12.146;2023-05-01T13:10:11;97131.56;;;18.22;44.39
62025;BME280;47978;49.118;12.146;2023-05-01T13:14:13;97131.03;;;18.16;45.22
62025;BME280;47978;49.118;12.146;2023-05-01T13:18:14;97131.66;;;18.09;44.83
62025;BME280;47978;49.118;12.146;2023-05-01T13:22:17;97126.97;;;18.13;44.91
62025;BME280;47978;49.118;12.146;2023-05-01T13:26:23;97133.63;;;18.25;46.01
62025;BME280;47978;49.118;12.146;2023-05-01T13:30:30;97132.22;;;17.99;44.48
62025;BME280;47978;49.118;12.146;2023-05-01T13:34:32;97124.78;;;18.07;45.17
62025;BME280;47978;49.118;12.146;2023-05-01T13:38:40;97130.72;;;18.21;45.39
62025;BME280;47978;49.118;12.146;2023-05-01T13:42:42;97133.50;;;18.21;44.48
62025;BME280;47978;49.118;12.146;2023-05-01T13:46:43;97135.41;;;18.33;43.90
62025;BME280;47978;49.118;12.146;2023-05-01T13:50:45;97125.66;;;18.27;44.32
62025;BME280;47978;49.118;12.146;2023-05-01T13:54:48;97125.03;;;18.17;44.82
62025;BME280;47978;49.118;12.146;2023-05-01T13:58:51;97129.47;;;18.18;46.51
62025;BME280;47978;49.118;12.146;2023-05-01T14:02:52;97122.31;;;18.02;45.84
62025;BME280;47978;49.118;12.146;2023-05-01T14:06:54;97127.38;;;17.96;46.72
62025;BME280;47978;49.118;12.146;2023-05-01T14:10:58;97130.69;;;18.02;49.91
62025;BME280;47978;49.118;12.146;2023-05-01T14:14:59;97121.78;;;17.96;50.01
62025;BME280;47978;49.118;12.146;2023-05-01T14:19:02;97126.09;;;17.93;51.84
62025;BME280;47978;49.118;12.146;2023-05-01T14:23:03;97127.56;;;17.87;53.54
62025;BME280;47978;49.118;12.146;2023-05-01T14:27:08;97121.66;;;17.61;52.73
62025;BME280;47978;49.118;12.146;2023-05-01T14:31:14;97126.72;;;17.39;55.12
62025;BME280;47978;49.118;12.146;2023-05-01T14:35:16;97131.13;;;17.24;56.14
62025;BME280;47978;49.118;12.146;2023-05-01T14:39:20;97133.75;;;17.17;55.36
62025;BME280;47978;49.118;12.146;2023-05-01T14:43:22;97133.66;;;17.29;54.22
62025;BME280;47978;49.118;12.146;2023-05-01T14:47:24;97135.72;;;17.17;56.09
62025;BME280;47978;49.118;12.146;2023-05-01T14:51:26;97142.03;;;17.14;54.83
62025;BME280;47978;49.118;12.146;2023-05-01T14:55:28;97142.63;;;17.07;53.42
62025;BME280;47978;49.118;12.146;2023-05-01T14:59:31;97139.25;;;17.14;54.31
62025;BME280;47978;49.118;12.146;2023-05-01T15:03:32;97135.69;;;17.01;57.93
62025;BME280;47978;49.118;12.146;2023-05-01T15:07:34;97148.63;;;16.93;61.00
62025;BME280;47978;49.118;12.146;2023-05-01T15:11:36;97152.38;;;16.57;62.27
62025;BME280;47978;49.118;12.146;2023-05-01T15:15:38;97158.84;;;16.61;64.87
62025;BME280;47978;49.118;12.146;2023-05-01T15:19:40;97157.25;;;16.48;65.83
62025;BME280;47978;49.118;12.146;2023-05-01T15:23:41;97167.31;;;16.36;66.91
62025;BME280;47978;49.118;12.146;2023-05-01T15:27:42;97159.63;;;16.33;66.46
62025;BME280;47978;49.118;12.146;2023-05-01T15:31:47;97168.00;;;16.33;68.70
62025;BME280;47978;49.118;12.146;2023-05-01T15:35:58;97170.13;;;16.12;68.46
62025;BME280;47978;49.118;12.146;2023-05-01T15:39:59;97180.34;;;16.08;67.69
62025;BME280;47978;49.118;12.146;2023-05-01T15:44:01;97182.78;;;15.85;69.73
62025;BME280;47978;49.118;12.146;2023-05-01T15:48:04;97182.28;;;15.58;70.09
62025;BME280;47978;49.118;12.146;2023-05-01T15:52:05;97183.31;;;15.53;70.58
62025;BME280;47978;49.118;12.146;2023-05-01T15:56:07;97191.34;;;15.43;70.07
62025;BME280;47978;49.118;12.146;2023-05-01T16:00:08;97186.41;;;15.27;70.79
62025;BME280;47978;49.118;12.146;2023-05-01T16:04:11;97190.34;;;15.14;70.95
62025;BME280;47978;49.118;12.146;2023-05-01T16:08:13;97187.47;;;15.23;70.74
62025;BME280;47978;49.118;12.146;2023-05-01T16:12:14;97184.41;;;15.16;70.50
62025;BME280;47978;49.118;12.146;2023-05-01T16:16:18;97187.88;;;15.13;70.67
62025;BME280;47978;49.118;12.146;2023-05-01T16:20:21;97183.78;;;14.98;71.04
62025;BME280;47978;49.118;12.146;2023-05-01T16:24:23;97186.56;;;14.98;70.00
62025;BME280;47978;49.118;12.146;2023-05-01T16:28:25;97195.25;;;14.96;70.87
62025;BME280;47978;49.118;12.146;2023-05-01T16:32:27;97192.59;;;15.00;71.25
62025;BME280;47978;49.118;12.146;2023-05-01T16:36:30;97201.16;;;14.74;71.24
62025;BME280;47978;49.118;12.146;2023-05-01T16:40:31;97196.72;;;14.60;71.97
62025;BME280;47978;49.118;12.146;2023-05-01T16:44:34;97194.19;;;14.68;72.27
62025;BME280;47978;49.118;12.146;2023-05-01T16:48:35;97190.72;;;14.71;71.50
62025;BME280;47978;49.118;12.146;2023-05-01T16:52:38;97194.53;;;14.66;71.44
62025;BME280;47978;49.118;12.146;2023-05-01T16:56:39;97201.47;;;14.60;71.74
62025;BME280;47978;49.118;12.146;2023-05-01T17:00:41;97191.41;;;14.68;70.87
62025;BME280;47978;49.118;12.146;2023-05-01T17:04:43;97194.88;;;14.65;70.72
62025;BME280;47978;49.118;12.146;2023-05-01T17:08:46;97200.41;;;14.85;69.98
62025;BME280;47978;49.118;12.146;2023-05-01T17:12:48;97208.03;;;14.97;68.79
62025;BME280;47978;49.118;12.146;2023-05-01T17:16:49;97208.22;;;14.92;68.57
62025;BME280;47978;49.118;12.146;2023-05-01T17:20:51;97204.75;;;14.95;67.81
62025;BME280;47978;49.118;12.146;2023-05-01T17:24:53;97199.56;;;14.73;68.40
62025;BME280;47978;49.118;12.146;2023-05-01T17:28:55;97203.16;;;14.73;68.71
62025;BME280;47978;49.118;12.146;2023-05-01T17:32:56;97205.13;;;14.73;69.06
62025;BME280;47978;49.118;12.146;2023-05-01T17:36:58;97203.09;;;14.61;69.65
62025;BME280;47978;49.118;12.146;2023-05-01T17:41:00;97214.53;;;14.38;67.95
62025;BME280;47978;49.118;12.146;2023-05-01T17:45:02;97213.53;;;14.43;67.65
62025;BME280;47978;49.118;12.146;2023-05-01T17:49:04;97217.63;;;14.37;68.23
62025;BME280;47978;49.118;12.146;2023-05-01T17:53:05;97227.81;;;14.33;68.23
62025;BME280;47978;49.118;12.146;2023-05-01T17:57:08;97224.53;;;14.31;68.52
62025;BME280;47978;49.118;12.146;2023-05-01T18:01:09;97226.94;;;14.11;69.00
62025;BME280;47978;49.118;12.146;2023-05-01T18:05:11;97230.25;;;14.05;69.70
62025;BME280;47978;49.118;12.146;2023-05-01T18:09:12;97239.00;;;13.94;70.52
62025;BME280;47978;49.118;12.146;2023-05-01T18:13:15;97234.63;;;13.85;70.48
62025;BME280;47978;49.118;12.146;2023-05-01T18:17:16;97236.44;;;13.81;70.44
62025;BME280;47978;49.118;12.146;2023-05-01T18:21:18;97235.00;;;13.75;71.73
62025;BME280;47978;49.118;12.146;2023-05-01T18:25:19;97255.44;;;13.70;71.87
62025;BME280;47978;49.118;12.146;2023-05-01T18:29:22;97254.81;;;13.64;71.92
62025;BME280;47978;49.118;12.146;2023-05-01T18:33:23;97246.34;;;13.52;72.16
62025;BME280;47978;49.118;12.146;2023-05-01T18:37:25;97251.94;;;13.43;72.44
62025;BME280;47978;49.118;12.146;2023-05-01T18:41:26;97252.78;;;13.35;73.82
62025;BME280;47978;49.118;12.146;2023-05-01T18:45:29;97261.13;;;13.09;75.07
62025;BME280;47978;49.118;12.146;2023-05-01T18:49:30;97268.13;;;12.89;76.09
62025;BME280;47978;49.118;12.146;2023-05-01T18:53:32;97274.31;;;12.69;76.95
62025;BME280;47978;49.118;12.146;2023-05-01T18:57:33;97281.97;;;12.46;76.63
62025;BME280;47978;49.118;12.146;2023-05-01T19:01:36;97289.56;;;12.23;77.04
62025;BME280;47978;49.118;12.146;2023-05-01T19:05:37;97291.91;;;11.89;78.60
62025;BME280;47978;49.118;12.146;2023-05-01T19:09:39;97302.97;;;11.89;78.19
62025;BME280;47978;49.118;12.146;2023-05-01T19:13:40;97310.38;;;11.71;78.69
62025;BME280;47978;49.118;12.146;2023-05-01T19:17:43;97316.59;;;11.77;79.09
62025;BME280;47978;49.118;12.146;2023-05-01T19:21:45;97314.03;;;11.58;79.19
62025;BME280;47978;49.118;12.146;2023-05-01T19:25:46;97319.63;;;11.36;80.58
62025;BME280;47978;49.118;12.146;2023-05-01T19:29:47;97320.50;;;11.22;80.89
62025;BME280;47978;49.118;12.146;2023-05-01T19:33:50;97322.56;;;11.17;80.84
62025;BME280;47978;49.118;12.146;2023-05-01T19:37:55;97332.44;;;11.09;81.52
62025;BME280;47978;49.118;12.146;2023-05-01T19:41:57;97331.09;;;11.07;81.70
62025;BME280;47978;49.118;12.146;2023-05-01T19:45:58;97330.13;;;11.02;82.43
62025;BME280;47978;49.118;12.146;2023-05-01T19:50:01;97332.94;;;11.11;82.43
62025;BME280;47978;49.118;12.146;2023-05-01T19:54:03;97335.75;;;10.97;83.00
62025;BME280;47978;49.118;12.146;2023-05-01T19:58:04;97339.56;;;11.01;82.98
62025;BME280;47978;49.118;12.146;2023-05-01T20:02:05;97341.06;;;11.08;82.63
62025;BME280;47978;49.118;12.146;2023-05-01T20:06:08;97351.72;;;11.00;82.88
62025;BME280;47978;49.118;12.146;2023-05-01T20:10:10;97354.91;;;11.08;82.54
62025;BME280;47978;49.118;12.146;2023-05-01T20:14:11;97357.16;;;11.06;82.81
62025;BME280;47978;49.118;12.146;2023-05-01T20:18:12;97363.59;;;11.37;82.70
62025;BME280;47978;49.118;12.146;2023-05-01T20:22:15;97366.00;;;11.30;82.33
62025;BME280;47978;49.118;12.146;2023-05-01T20:26:17;97363.63;;;11.23;82.49
62025;BME280;47978;49.118;12.146;2023-05-01T20:30:18;97374.09;;;11.26;82.84
62025;BME280;47978;49.118;12.146;2023-05-01T20:34:20;97374.00;;;11.18;83.20
62025;BME280;47978;49.118;12.146;2023-05-01T20:38:23;97370.84;;;11.24;83.34
62025;BME280;47978;49.118;12.146;2023-05-01T20:42:24;97373.66;;;11.33;83.32
62025;BME280;47978;49.118;12.146;2023-05-01T20:46:26;97370.91;;;11.33;83.04
62025;BME280;47978;49.118;12.146;2023-05-01T20:50:27;97374.00;;;11.18;83.47
62025;BME280;47978;49.118;12.146;2023-05-01T20:54:30;97382.72;;;11.25;83.65
62025;BME280;47978;49.118;12.146;2023-05-01T20:58:31;97375.84;;;11.22;84.05
62025;BME280;47978;49.118;12.146;2023-05-01T21:02:32;97376.72;;;11.09;84.26
62025;BME280;47978;49.118;12.146;2023-05-01T21:06:36;97381.31;;;11.14;83.82
62025;BME280;47978;49.118;12.146;2023-05-01T21:10:39;97381.66;;;10.98;84.69
62025;BME280;47978;49.118;12.146;2023-05-01T21:14:40;97388.56;;;10.87;84.96
62025;BME280;47978;49.118;12.146;2023-05-01T21:18:42;97391.03;;;10.75;85.13
62025;BME280;47978;49.118;12.146;2023-05-01T21:22:43;97382.22;;;10.73;85.11
62025;BME280;47978;49.118;12.146;2023-05-01T21:26:46;97395.25;;;10.58;85.45
62025;BME280;47978;49.118;12.146;2023-05-01T21:30:47;97403.06;;;10.56;85.44
62025;BME280;47978;49.118;12.146;2023-05-01T21:34:51;97399.66;;;10.60;85.58
62025;BME280;47978;49.118;12.146;2023-05-01T21:38:52;97400.81;;;10.45;86.45